Time;durP1;ratioP1;P1;durP2;ratioP2;P2;SDS_P1;SDS_P2;PMS_P1;PMS_P2;Temp;Humidity;BMP_temperature;BMP_pressure;BME280_temperature;BME280_humidity;BME280_pressure;Samples;Min_cycle;Max_cycle;Signal;HPM_P1;HPM_P2
2023/12/04 00:01:16;;;;;;;44.17;25.88;;;;;;;-0.26;100.00;160505.53;5048504;28;20048;-58
2023/12/04 00:03:42;;;;;;;46.65;29.75;;;;;;;-0.28;100.00;160500.16;5050339;28;20029;-58
2023/12/04 00:06:10;;;;;;;42.42;25.02;;;;;;;-0.28;100.00;160500.16;5061293;28;20127;-58
2023/12/04 00:08:36;;;;;;;42.78;27.42;;;;;;;-0.27;100.00;160502.84;5070357;28;20505;-58
2023/12/04 00:11:01;;;;;;;42.25;29.20;;;;;;;-0.22;100.00;160516.22;5068602;28;20047;-58
2023/12/04 00:13:27;;;;;;;40.30;26.70;;;;;;;-0.21;100.00;160518.91;5069632;28;20024;-58
2023/12/04 00:15:52;;;;;;;52.15;30.17;;;;;;;-0.19;100.00;160525.59;5052584;28;20524;-58
2023/12/04 00:18:18;;;;;;;45.38;29.08;;;;;;;-0.17;100.00;160529.59;5049962;28;20380;-58
2023/12/04 00:20:43;;;;;;;44.95;28.85;;;;;;;-0.18;100.00;160528.28;5048603;28;20275;-58
2023/12/04 00:23:08;;;;;;;56.05;30.55;;;;;;;-0.18;100.00;160528.28;5049922;28;20021;-58
2023/12/04 00:25:34;;;;;;;45.08;29.80;;;;;;;-0.10;100.00;160548.38;5028521;28;20505;-58
2023/12/04 00:27:59;;;;;;;39.28;27.70;;;;;;;-0.14;100.00;160536.28;5045641;28;20029;-58
2023/12/04 00:30:24;;;;;;;46.63;27.85;;;;;;;-0.16;100.00;160532.28;5047879;28;20037;-58
2023/12/04 00:32:50;;;;;;;45.42;28.27;;;;;;;-0.17;100.00;160529.59;5054953;28;20173;-58
2023/12/04 00:35:15;;;;;;;44.97;28.27;;;;;;;-0.16;100.00;160532.28;5071169;28;20037;-58
2023/12/04 00:37:41;;;;;;;43.45;31.25;;;;;;;-0.12;100.00;160543.03;5073112;28;20053;-58
2023/12/04 00:40:09;;;;;;;41.80;28.17;;;;;;;-0.07;100.00;160555.06;5072212;28;20037;-58
2023/12/04 00:42:35;;;;;;;37.08;27.30;;;;;;;-0.07;100.00;160555.06;5062568;28;20108;-58
2023/12/04 00:45:02;;;;;;;40.20;27.30;;;;;;;-0.12;100.00;160541.69;5050240;28;20140;-58
2023/12/04 00:47:27;;;;;;;39.08;27.83;;;;;;;-0.08;100.00;160553.75;5056539;28;20043;-58
2023/12/04 00:49:53;;;;;;;41.17;26.38;;;;;;;-0.06;100.00;160557.75;5071796;28;20118;-58
2023/12/04 00:52:18;;;;;;;43.33;26.60;;;;;;;-0.03;100.00;160567.13;5072600;28;20024;-58
2023/12/04 00:54:43;;;;;;;40.25;27.00;;;;;;;-0.10;100.00;160548.38;5058657;28;20112;-58
2023/12/04 00:57:09;;;;;;;41.08;26.42;;;;;;;-0.06;100.00;160559.13;5053230;28;20029;-58
2023/12/04 00:59:34;;;;;;;35.03;22.98;;;;;;;-0.01;100.00;160572.50;5050993;28;20033;-59
2023/12/04 01:02:00;;;;;;;39.70;26.75;;;;;;;-0.02;100.00;160569.81;5069888;28;20044;-58
2023/12/04 01:04:25;;;;;;;35.40;24.92;;;;;;;-0.05;100.00;160561.81;5071384;28;20047;-59
2023/12/04 01:06:52;;;;;;;34.42;24.45;;;;;;;-0.02;100.00;160569.81;5072537;28;20016;-59
2023/12/04 01:09:17;;;;;;;33.83;23.88;;;;;;;-0.12;100.00;160543.03;5071135;28;20032;-59
2023/12/04 01:11:43;;;;;;;35.53;25.35;;;;;;;-0.06;100.00;160559.13;5069662;28;20028;-59
2023/12/04 01:14:08;;;;;;;35.28;25.95;;;;;;;-0.01;100.00;160572.50;5050134;28;20020;-59
2023/12/04 01:16:34;;;;;;;39.47;27.80;;;;;;;-0.05;100.00;160561.81;5068133;28;20035;-59
2023/12/04 01:18:59;;;;;;;35.97;25.30;;;;;;;0.02;100.00;160577.88;5072714;28;20017;-59
2023/12/04 01:21:24;;;;;;;34.40;25.73;;;;;;;-0.03;100.00;160567.13;5070653;28;20037;-59
2023/12/04 01:23:50;;;;;;;38.95;22.65;;;;;;;0.05;100.00;160585.88;5069421;28;20033;-59
2023/12/04 01:26:15;;;;;;;35.10;23.67;;;;;;;0.05;100.00;160585.88;5051032;28;20043;-58
2023/12/04 01:28:41;;;;;;;29.92;21.30;;;;;;;0.03;100.00;160580.56;5052192;28;20025;-59
2023/12/04 01:31:06;;;;;;;35.97;22.25;;;;;;;0.07;100.00;160591.25;5051029;28;20052;-59
2023/12/04 01:33:32;;;;;;;36.00;24.83;;;;;;;0.05;100.00;160585.88;5052561;28;20020;-58
2023/12/04 01:35:57;;;;;;;32.83;22.67;;;;;;;-0.02;100.00;160569.81;5050576;28;20380;-58
2023/12/04 01:38:23;;;;;;;38.25;25.27;;;;;;;-0.02;100.00;160569.81;5052275;28;20025;-59
2023/12/04 01:40:48;;;;;;;34.40;23.23;;;;;;;0.01;100.00;160575.19;5050769;28;20044;-58
2023/12/04 01:43:14;;;;;;;39.30;26.40;;;;;;;-0.13;100.00;160540.34;5051608;28;20373;-59
2023/12/04 01:45:40;;;;;;;30.98;21.73;;;;;;;-0.03;100.00;160567.13;5050153;28;20416;-56
2023/12/04 01:48:07;;;;;;;36.53;24.02;;;;;;;-0.03;100.00;160565.81;5052187;28;20029;-59
2023/12/04 01:50:34;;;;;;;38.45;24.00;;;;;;;-0.02;100.00;160569.81;5049998;28;20504;-59
2023/12/04 01:53:00;;;;;;;36.92;24.52;;;;;;;-0.09;100.00;160549.72;5052192;28;20060;-59
2023/12/04 01:55:27;;;;;;;31.42;20.95;;;;;;;-0.12;100.00;160543.03;5050917;28;20036;-59
2023/12/04 01:57:53;;;;;;;39.30;21.63;;;;;;;-0.04;100.00;160564.44;5071462;28;20075;-59
2023/12/04 02:00:20;;;;;;;38.80;23.80;;;;;;;-0.21;100.00;160520.22;5070474;28;20040;-59
2023/12/04 02:02:46;;;;;;;31.00;23.13;;;;;;;-0.11;100.00;160545.69;5071823;28;20428;-59
2023/12/04 02:05:13;;;;;;;37.28;25.45;;;;;;;-0.11;100.00;160545.69;5069930;28;20090;-58
2023/12/04 02:07:40;;;;;;;34.15;21.33;;;;;;;-0.14;100.00;160536.28;5071705;28;20036;-58
2023/12/04 02:10:06;;;;;;;36.10;23.90;;;;;;;-0.19;100.00;160525.59;5058418;28;20040;-58
2023/12/04 02:12:32;;;;;;;36.70;24.60;;;;;;;-0.28;100.00;160500.16;5050885;28;20108;-58
2023/12/04 02:14:58;;;;;;;36.85;24.70;;;;;;;-0.22;100.00;160516.22;5050230;28;20044;-59
2023/12/04 02:17:25;;;;;;;34.35;23.02;;;;;;;-0.27;100.00;160502.84;5051428;28;20025;-59
2023/12/04 02:19:51;;;;;;;36.03;20.70;;;;;;;-0.29;100.00;160497.47;5049982;28;20068;-59
2023/12/04 02:22:18;;;;;;;31.98;24.42;;;;;;;-0.29;100.00;160498.78;5051364;28;20466;-58
2023/12/04 02:24:44;;;;;;;33.42;23.92;;;;;;;-0.29;100.00;160497.47;5063749;28;20045;-58
2023/12/04 02:27:17;;;;;;;35.25;25.55;;;;;;;-0.26;100.00;160506.84;5070865;28;20082;-58
2023/12/04 02:29:51;;;;;;;29.92;22.90;;;;;;;-0.34;100.00;160485.41;5069936;28;20053;-58
2023/12/04 02:32:19;;;;;;;32.95;22.10;;;;;;;-0.34;100.00;160486.78;5071051;28;20032;-59
2023/12/04 02:34:48;;;;;;;34.80;24.88;;;;;;;-0.40;100.00;160470.66;5069106;28;20044;-59
2023/12/04 02:37:14;;;;;;;32.78;21.85;;;;;;;-0.37;100.00;160478.72;5059976;28;20088;-59
2023/12/04 02:39:40;;;;;;;39.35;22.75;;;;;;;-0.42;100.00;160465.34;5050040;28;20406;-59
2023/12/04 02:42:06;;;;;;;31.88;23.85;;;;;;;-0.43;100.00;160462.66;5051152;28;20025;-59
2023/12/04 02:44:31;;;;;;;28.10;22.90;;;;;;;-0.42;100.00;160465.34;5049534;28;20412;-58
2023/12/04 02:46:57;;;;;;;32.80;22.63;;;;;;;-0.38;100.00;160476.03;5051084;28;20033;-58
2023/12/04 02:49:22;;;;;;;31.42;20.02;;;;;;;-0.36;100.00;160480.03;5049093;28;20041;-59
2023/12/04 02:51:48;;;;;;;35.13;23.90;;;;;;;-0.35;100.00;160484.09;5051065;28;20025;-58
2023/12/04 02:54:13;;;;;;;37.50;23.15;;;;;;;-0.25;100.00;160508.16;5049220;28;20504;-59
2023/12/04 02:56:38;;;;;;;31.25;22.15;;;;;;;-0.26;100.00;160505.53;5050445;28;20029;-58
2023/12/04 02:59:04;;;;;;;28.80;20.35;;;;;;;-0.29;100.00;160497.47;5049140;28;20075;-58
2023/12/04 03:01:30;;;;;;;33.47;22.65;;;;;;;-0.22;100.00;160516.22;5051025;28;20428;-58
2023/12/04 03:03:55;;;;;;;33.65;23.65;;;;;;;-0.20;100.00;160521.59;5050850;28;20024;-58
2023/12/04 03:06:21;;;;;;;32.80;21.08;;;;;;;-0.19;100.00;160524.28;5049083;28;20033;-58
2023/12/04 03:08:46;;;;;;;30.38;21.27;;;;;;;-0.13;100.00;160540.34;5051023;28;20037;-59
2023/12/04 03:11:11;;;;;;;34.33;24.08;;;;;;;-0.11;100.00;160545.69;5048542;28;20041;-58
2023/12/04 03:13:37;;;;;;;32.20;21.05;;;;;;;-0.08;100.00;160553.75;5050336;28;20037;-58
2023/12/04 03:16:02;;;;;;;31.75;23.25;;;;;;;-0.10;100.00;160548.38;5049287;28;20041;-58
2023/12/04 03:18:28;;;;;;;31.75;22.05;;;;;;;-0.12;100.00;160541.69;5060525;28;20099;-59
2023/12/04 03:20:54;;;;;;;30.55;21.58;;;;;;;-0.07;100.00;160555.06;5069259;28;20044;-59
2023/12/04 03:23:19;;;;;;;30.10;20.77;;;;;;;-0.09;100.00;160551.06;5070407;28;20052;-58
2023/12/04 03:25:44;;;;;;;27.23;22.25;;;;;;;-0.13;100.00;160540.34;5069048;28;20621;-58
2023/12/04 03:28:10;;;;;;;31.08;21.52;;;;;;;-0.13;100.00;160540.34;5069960;28;20074;-58
2023/12/04 03:30:35;;;;;;;29.30;22.08;;;;;;;-0.07;100.00;160555.06;5069062;28;20407;-58
2023/12/04 03:33:01;;;;;;;27.10;18.48;;;;;;;-0.09;100.00;160551.06;5070233;28;20033;-58
2023/12/04 03:35:26;;;;;;;29.95;19.67;;;;;;;-0.03;100.00;160567.13;5068449;28;20040;-58
2023/12/04 03:37:52;;;;;;;27.13;19.38;;;;;;;-0.10;100.00;160548.38;5070598;28;20076;-59
2023/12/04 03:40:17;;;;;;;29.40;21.63;;;;;;;-0.08;100.00;160552.41;5068508;28;20048;-58
2023/12/04 03:42:43;;;;;;;32.60;21.13;;;;;;;-0.10;100.00;160548.38;5055865;28;20503;-59
2023/12/04 03:45:09;;;;;;;30.30;21.75;;;;;;;-0.13;100.00;160540.34;5050926;28;20041;-59
2023/12/04 03:47:34;;;;;;;29.23;20.23;;;;;;;-0.13;100.00;160539.00;5070309;28;20021;-59
2023/12/04 03:49:59;;;;;;;34.70;22.05;;;;;;;-0.13;100.00;160540.34;5059646;28;20056;-58
2023/12/04 03:52:25;;;;;;;26.67;18.25;;;;;;;-0.12;100.00;160543.03;5050419;28;20020;-58
2023/12/04 03:54:50;;;;;;;28.85;22.10;;;;;;;-0.13;100.00;160539.00;5063301;28;20052;-58
2023/12/04 03:57:16;;;;;;;23.15;17.92;;;;;;;-0.10;100.00;160548.38;5069668;28;20031;-58
2023/12/04 03:59:41;;;;;;;26.15;20.10;;;;;;;-0.06;100.00;160557.75;5068451;28;20037;-58
2023/12/04 04:02:06;;;;;;;26.17;19.25;;;;;;;-0.02;100.00;160568.50;5070350;28;20028;-58
2023/12/04 04:04:32;;;;;;;26.48;20.17;;;;;;;-0.01;100.00;160571.19;5068245;28;20034;-58
2023/12/04 04:06:57;;;;;;;27.10;19.75;;;;;;;-0.03;100.00;160565.81;5070218;28;20101;-58
2023/12/04 04:09:22;;;;;;;27.33;18.17;;;;;;;0.02;100.00;160577.88;5069729;28;20503;-58
2023/12/04 04:11:48;;;;;;;27.95;17.63;;;;;;;0.07;100.00;160592.63;5067262;28;20159;-58
2023/12/04 04:14:13;;;;;;;26.15;19.98;;;;;;;0.06;100.00;160588.56;5052574;28;20096;-58
2023/12/04 04:16:39;;;;;;;31.40;18.80;;;;;;;0.09;100.00;160597.94;5054015;28;20021;-58
2023/12/04 04:19:05;;;;;;;25.20;18.55;;;;;;;0.07;100.00;160591.25;5052214;28;20021;-58
2023/12/04 04:21:31;;;;;;;24.00;17.95;;;;;;;0.03;100.00;160581.88;5058210;28;20028;-59
2023/12/04 04:23:56;;;;;;;26.38;17.95;;;;;;;0.05;100.00;160585.88;5053823;28;20041;-59
2023/12/04 04:26:22;;;;;;;23.25;18.45;;;;;;;0.03;100.00;160580.56;5051584;28;20045;-59
2023/12/04 04:28:47;;;;;;;25.95;18.42;;;;;;;-0.02;100.00;160569.81;5053741;28;20067;-59
2023/12/04 04:31:12;;;;;;;26.20;19.02;;;;;;;0.04;100.00;160583.25;5051968;28;20093;-59
2023/12/04 04:33:38;;;;;;;22.10;16.17;;;;;;;0.03;100.00;160581.88;5053304;28;20029;-59
2023/12/04 04:36:04;;;;;;;25.42;16.65;;;;;;;0.01;100.00;160575.19;5051947;28;20041;-59
2023/12/04 04:38:29;;;;;;;23.80;19.23;;;;;;;0.03;100.00;160580.56;5053613;28;20838;-59
2023/12/04 04:40:54;;;;;;;27.10;18.50;;;;;;;0.01;100.00;160576.50;5053568;28;20037;-59
2023/12/04 04:43:20;;;;;;;24.88;16.98;;;;;;;0.01;100.00;160575.19;5073159;28;20020;-59
2023/12/04 04:45:45;;;;;;;23.13;18.02;;;;;;;0.02;100.00;160577.88;5072049;28;20564;-59
2023/12/04 04:48:11;;;;;;;21.33;17.00;;;;;;;0.04;100.00;160583.25;5072542;28;20399;-59
2023/12/04 04:50:36;;;;;;;24.48;17.63;;;;;;;-0.02;100.00;160569.81;5071416;28;20052;-59
2023/12/04 04:53:02;;;;;;;25.13;16.05;;;;;;;0.01;100.00;160575.19;5062425;28;20071;-59
2023/12/04 04:55:27;;;;;;;27.23;19.65;;;;;;;0.01;100.00;160575.19;5051322;28;20049;-59
2023/12/04 04:57:52;;;;;;;26.33;20.45;;;;;;;-0.02;100.00;160569.81;5053224;28;20039;-59
2023/12/04 05:00:18;;;;;;;20.75;16.52;;;;;;;0.02;100.00;160577.88;5051592;28;20041;-59
2023/12/04 05:02:43;;;;;;;21.73;16.63;;;;;;;-0.02;100.00;160569.81;5053007;28;20457;-59
2023/12/04 05:05:09;;;;;;;21.55;16.52;;;;;;;-0.03;100.00;160567.13;5056631;28;20052;-58
2023/12/04 05:07:34;;;;;;;20.00;16.33;;;;;;;-0.09;100.00;160551.06;5057980;28;20047;-58
2023/12/04 05:09:59;;;;;;;23.02;16.58;;;;;;;-0.19;100.00;160524.28;5050825;28;20053;-58
2023/12/04 05:12:25;;;;;;;24.85;17.70;;;;;;;-0.11;100.00;160545.69;5060739;28;20396;-58
2023/12/04 05:14:50;;;;;;;20.38;17.42;;;;;;;-0.12;100.00;160543.03;5051131;28;20048;-58
2023/12/04 05:17:15;;;;;;;21.08;15.25;;;;;;;-0.14;100.00;160537.66;5052149;28;20064;-58
2023/12/04 05:19:41;;;;;;;20.40;16.25;;;;;;;-0.19;100.00;160524.28;5051310;28;20079;-58
2023/12/04 05:22:07;;;;;;;23.67;15.10;;;;;;;-0.11;100.00;160545.69;5063860;28;20043;-58
2023/12/04 05:24:33;;;;;;;23.67;17.42;;;;;;;-0.10;100.00;160548.38;5070381;28;20133;-58
2023/12/04 05:26:58;;;;;;;19.60;15.90;;;;;;;-0.06;100.00;160557.75;5072749;28;20025;-58
2023/12/04 05:29:24;;;;;;;27.60;16.58;;;;;;;-0.09;100.00;160551.06;5070608;28;20041;-58
2023/12/04 05:31:49;;;;;;;23.75;17.90;;;;;;;-0.05;100.00;160561.81;5067642;28;20063;-59
2023/12/04 05:34:14;;;;;;;20.13;15.05;;;;;;;-0.10;100.00;160548.38;5057651;28;20036;-58
2023/12/04 05:36:40;;;;;;;17.50;14.20;;;;;;;-0.07;100.00;160556.44;5063539;28;20056;-59
2023/12/04 05:39:05;;;;;;;22.33;14.77;;;;;;;-0.08;100.00;160552.41;5050803;28;20028;-59
2023/12/04 05:41:30;;;;;;;22.77;17.42;;;;;;;-0.08;100.00;160552.41;5052060;28;20051;-58
2023/12/04 05:43:56;;;;;;;17.90;15.25;;;;;;;-0.15;100.00;160533.66;5052750;28;20032;-59
2023/12/04 05:46:21;;;;;;;22.10;15.68;;;;;;;-0.10;100.00;160548.38;5050648;28;20444;-56
2023/12/04 05:48:47;;;;;;;22.70;17.50;;;;;;;-0.12;100.00;160543.03;5051824;28;20040;-56
2023/12/04 05:51:13;;;;;;;17.73;13.73;;;;;;;-0.13;100.00;160540.34;5050609;28;20048;-56
2023/12/04 05:53:38;;;;;;;17.30;13.70;;;;;;;-0.09;100.00;160549.72;5052267;28;20445;-56
2023/12/04 05:56:05;;;;;;;18.25;13.38;;;;;;;-0.11;100.00;160545.69;5050364;28;20037;-56
2023/12/04 05:58:30;;;;;;;19.60;14.10;;;;;;;-0.07;100.00;160555.06;5051647;28;20025;-56
2023/12/04 06:00:56;;;;;;;18.95;16.95;;;;;;;-0.12;100.00;160543.03;5050591;28;20048;-56
2023/12/04 06:03:21;;;;;;;19.17;14.38;;;;;;;-0.07;100.00;160556.44;5051491;28;20032;-56
2023/12/04 06:05:47;;;;;;;17.33;13.38;;;;;;;-0.11;100.00;160545.69;5050579;28;20582;-56
2023/12/04 06:08:12;;;;;;;16.40;14.07;;;;;;;-0.09;100.00;160551.06;5051469;28;20025;-56
2023/12/04 06:10:37;;;;;;;17.35;12.73;;;;;;;-0.11;100.00;160544.38;5049828;28;20037;-56
2023/12/04 06:13:03;;;;;;;20.38;15.27;;;;;;;-0.10;100.00;160548.38;5051525;28;20021;-56
2023/12/04 06:15:28;;;;;;;22.33;16.40;;;;;;;-0.08;100.00;160553.75;5050263;28;20033;-56
2023/12/04 06:17:53;;;;;;;18.75;14.98;;;;;;;-0.12;100.00;160541.69;5051177;28;20473;-56
2023/12/04 06:20:19;;;;;;;19.45;15.45;;;;;;;-0.04;100.00;160563.13;5050014;28;20067;-56
2023/12/04 06:22:45;;;;;;;17.08;13.02;;;;;;;-0.05;100.00;160561.81;5051933;28;20029;-56
2023/12/04 06:25:11;;;;;;;18.13;13.32;;;;;;;-0.07;100.00;160556.44;5049707;28;20047;-56
2023/12/04 06:27:38;;;;;;;18.13;13.98;;;;;;;-0.07;100.00;160556.44;5051259;28;20622;-56
2023/12/04 06:30:05;;;;;;;14.63;12.32;;;;;;;-0.06;100.00;160559.13;5049940;28;20041;-56
2023/12/04 06:32:30;;;;;;;17.60;12.82;;;;;;;-0.03;100.00;160567.13;5050324;28;20028;-56
2023/12/04 06:34:56;;;;;;;14.35;11.50;;;;;;;0.05;100.00;160585.88;5049689;28;20048;-56
2023/12/04 06:37:21;;;;;;;15.70;13.13;;;;;;;0.10;100.00;160599.31;5050926;28;20060;-56
2023/12/04 06:39:48;;;;;;;14.15;9.95;;;;;;;0.06;100.00;160589.94;5049636;28;20139;-56
2023/12/04 06:42:14;;;;;;;16.00;11.00;;;;;;;0.11;100.00;160602.00;5050760;28;20512;-55
2023/12/04 06:44:39;;;;;;;16.92;11.43;;;;;;;0.07;100.00;160592.63;5049995;28;20123;-56
2023/12/04 06:47:08;;;;;;;16.77;11.60;;;;;;;0.11;100.00;160602.00;5050877;28;20098;-56
2023/12/04 06:49:33;;;;;;;14.43;11.27;;;;;;;0.12;100.00;160604.66;5049243;28;20045;-56
2023/12/04 06:52:02;;;;;;;15.55;12.00;;;;;;;0.14;100.00;160610.00;5051229;28;20025;-56
2023/12/04 06:54:27;;;;;;;13.60;11.18;;;;;;;0.15;100.00;160614.03;5048929;28;20037;-56
2023/12/04 06:56:53;;;;;;;11.35;10.23;;;;;;;0.20;100.00;160624.78;5051053;28;20032;-56
2023/12/04 06:59:18;;;;;;;14.63;10.57;;;;;;;0.19;100.00;160623.41;5049591;28;20411;-56
2023/12/04 07:01:44;;;;;;;13.45;11.05;;;;;;;0.22;100.00;160631.47;5050470;28;20025;-56
2023/12/04 07:04:09;;;;;;;13.40;11.02;;;;;;;0.23;100.00;160634.16;5049633;28;20079;-55
2023/12/04 07:06:39;;;;;;;12.35;10.65;;;;;;;0.31;100.00;160655.59;5050965;28;20104;-56
2023/12/04 07:09:07;;;;;;;13.23;11.10;;;;;;;0.29;100.00;160650.22;5049341;28;20024;-55
2023/12/04 07:11:33;;;;;;;14.03;9.80;;;;;;;0.30;100.00;160652.91;5050818;28;20051;-56
2023/12/04 07:13:58;;;;;;;14.80;10.52;;;;;;;0.34;100.00;160662.31;5050816;28;20529;-56
2023/12/04 07:16:24;;;;;;;13.15;10.15;;;;;;;0.36;100.00;160666.31;5048381;28;20408;-58
2023/12/04 07:18:49;;;;;;;12.90;10.23;;;;;;;0.40;100.00;160677.06;5050260;28;20025;-58
2023/12/04 07:21:15;;;;;;;12.95;10.68;;;;;;;0.38;100.00;160671.69;5049220;28;20106;-57
2023/12/04 07:23:40;;;;;;;11.25;9.48;;;;;;;0.40;100.00;160677.06;5050318;28;20021;-57
2023/12/04 07:26:06;;;;;;;13.60;9.88;;;;;;;0.37;100.00;160669.00;5049122;28;20492;-57
2023/12/04 07:28:32;;;;;;;11.85;9.98;;;;;;;0.45;100.00;160690.44;5050563;28;20029;-58
2023/12/04 07:30:57;;;;;;;12.20;10.13;;;;;;;0.44;100.00;160687.75;5048915;28;20048;-57
2023/12/04 07:33:23;;;;;;;10.77;9.75;;;;;;;0.50;100.00;160703.84;5050351;28;20017;-58
2023/12/04 07:35:48;;;;;;;11.32;8.93;;;;;;;0.48;100.00;160698.50;5048821;28;20037;-58
2023/12/04 07:38:13;;;;;;;12.30;10.68;;;;;;;0.46;100.00;160693.13;5049853;28;20044;-57
2023/12/04 07:40:39;;;;;;;12.73;9.43;;;;;;;0.54;100.00;160714.59;5049188;28;20041;-57
2023/12/04 07:43:04;;;;;;;9.38;8.10;;;;;;;0.50;100.00;160702.53;5050737;28;20025;-57
2023/12/04 07:45:29;;;;;;;11.90;8.98;;;;;;;0.52;100.00;160709.22;5052046;28;20041;-58
2023/12/04 07:47:55;;;;;;;13.10;8.55;;;;;;;0.56;100.00;160719.91;5054501;28;20503;-57
2023/12/04 07:50:20;;;;;;;9.98;8.68;;;;;;;0.62;100.00;160734.69;5052805;28;20403;-57
2023/12/04 07:52:46;;;;;;;10.10;8.60;;;;;;;0.59;100.00;160727.97;5054137;28;20472;-57
2023/12/04 07:55:11;;;;;;;13.20;9.55;;;;;;;0.69;100.00;160752.13;5052779;28;20045;-57
2023/12/04 07:57:37;;;;;;;10.02;8.25;;;;;;;0.73;100.00;160764.19;5054368;28;20029;-57
2023/12/04 08:00:02;;;;;;;10.45;9.32;;;;;;;0.74;100.00;160765.53;5052143;28;20067;-57
2023/12/04 08:02:28;;;;;;;10.20;7.95;;;;;;;0.77;100.00;160773.59;5053371;28;20029;-57
2023/12/04 08:04:53;;;;;;;8.73;7.45;;;;;;;0.77;100.00;160774.91;5051573;28;20048;-57
2023/12/04 08:07:19;;;;;;;10.77;7.85;;;;;;;0.66;100.00;160744.06;5053096;28;20472;-58
2023/12/04 08:09:44;;;;;;;11.05;8.77;;;;;;;0.75;100.00;160768.22;5052416;28;20045;-57
2023/12/04 08:12:10;;;;;;;11.35;10.02;;;;;;;0.75;100.00;160768.22;5053742;28;20066;-58
2023/12/04 08:14:35;;;;;;;10.65;9.13;;;;;;;0.79;100.00;160778.91;5052112;28;20040;-57
2023/12/04 08:17:00;;;;;;;11.77;8.75;;;;;;;0.82;100.00;160785.66;5047661;28;20013;-57
2023/12/04 08:19:26;;;;;;;10.55;8.48;;;;;;;0.82;100.00;160786.97;5032353;28;20041;-57
2023/12/04 08:21:51;;;;;;;12.50;9.07;;;;;;;0.85;100.00;160793.69;5033479;28;20029;-58
2023/12/04 08:24:18;;;;;;;12.15;9.65;;;;;;;0.83;100.00;160789.66;5034653;28;20026;-57
2023/12/04 08:26:45;;;;;;;10.60;7.72;;;;;;;0.82;100.00;160786.97;5053565;28;20036;-57
2023/12/04 08:29:11;;;;;;;9.90;8.88;;;;;;;0.86;100.00;160796.38;5051789;28;20029;-57
2023/12/04 08:31:36;;;;;;;9.45;7.53;;;;;;;0.84;100.00;160792.34;5053138;28;20024;-57
2023/12/04 08:34:01;;;;;;;12.48;9.43;;;;;;;0.85;100.00;160793.69;5051982;28;20070;-57
2023/12/04 08:36:27;;;;;;;9.35;8.27;;;;;;;0.90;100.00;160808.44;5052675;28;20048;-57
2023/12/04 08:38:52;;;;;;;12.95;10.23;;;;;;;0.91;100.00;160809.75;5051846;28;20017;-57
2023/12/04 08:41:17;;;;;;;13.02;11.48;;;;;;;0.94;100.00;160819.16;5050562;28;20040;-58
2023/12/04 08:43:43;;;;;;;10.32;8.90;;;;;;;1.00;100.00;160833.91;5052020;28;20021;-58
2023/12/04 08:46:12;;;;;;;8.38;7.47;;;;;;;1.01;100.00;160835.22;5050379;28;20048;-57
2023/12/04 08:48:37;;;;;;;10.32;9.20;;;;;;;1.01;100.00;160835.22;5051950;28;20028;-58
2023/12/04 08:51:03;;;;;;;12.10;9.82;;;;;;;0.93;100.00;160816.47;5050316;28;20037;-58
2023/12/04 08:53:28;;;;;;;10.43;9.25;;;;;;;1.02;100.00;160837.91;5051106;28;20061;-57
2023/12/04 08:55:54;;;;;;;9.23;7.78;;;;;;;1.00;100.00;160832.59;5050201;28;20082;-57
2023/12/04 08:58:19;;;;;;;10.73;8.07;;;;;;;1.04;100.00;160843.28;5051748;28;20021;-58
2023/12/04 09:00:45;;;;;;;11.68;8.38;;;;;;;1.07;100.00;160851.38;5048406;28;20048;-57
2023/12/04 09:03:10;;;;;;;9.25;7.57;;;;;;;1.08;100.00;160855.38;5051199;28;20391;-57
2023/12/04 09:05:36;;;;;;;9.77;8.43;;;;;;;1.06;100.00;160848.69;5049664;28;20118;-57
2023/12/04 09:08:01;;;;;;;10.55;9.40;;;;;;;1.07;100.00;160851.38;5051678;28;20062;-57
2023/12/04 09:10:27;;;;;;;9.18;8.10;;;;;;;1.03;100.00;160840.59;5050109;28;20069;-58
2023/12/04 09:12:52;;;;;;;10.25;8.35;;;;;;;1.09;100.00;160858.06;5051833;28;20423;-58
2023/12/04 09:15:18;;;;;;;10.68;8.52;;;;;;;1.18;100.00;160880.84;5049877;28;20048;-58
2023/12/04 09:17:43;;;;;;;9.77;8.13;;;;;;;1.16;100.00;160875.47;5051967;28;20107;-58
2023/12/04 09:20:08;;;;;;;9.57;8.68;;;;;;;1.20;100.00;160886.22;5050467;28;20042;-58
2023/12/04 09:22:37;;;;;;;12.23;9.15;;;;;;;1.26;100.00;160902.31;5050983;28;20096;-58
2023/12/04 09:25:04;;;;;;;9.13;7.13;;;;;;;1.22;100.00;160890.22;5050042;28;20048;-58
2023/12/04 09:27:30;;;;;;;8.40;7.57;;;;;;;1.35;100.00;160925.09;5051636;28;20025;-58
2023/12/04 09:29:55;;;;;;;19.17;7.80;;;;;;;1.28;100.00;160906.31;5049684;28;20044;-58
2023/12/04 09:32:21;;;;;;;12.48;8.80;;;;;;;1.35;100.00;160923.78;5049660;28;20025;-57
2023/12/04 09:34:46;;;;;;;8.80;7.65;;;;;;;1.35;100.00;160923.78;5049454;28;20044;-58
2023/12/04 09:37:11;;;;;;;9.60;8.60;;;;;;;1.27;100.00;160905.00;5013269;28;1092547;-58
2023/12/04 09:39:37;;;;;;;11.20;8.70;;;;;;;1.33;100.00;160918.41;5050699;28;20407;-58
2023/12/04 09:42:03;;;;;;;10.15;7.50;;;;;;;1.35;100.00;160923.78;5051362;28;20032;-58
2023/12/04 09:44:30;;;;;;;9.43;8.38;;;;;;;1.45;100.00;160949.25;5049009;28;20546;-58
2023/12/04 09:46:56;;;;;;;9.75;8.02;;;;;;;1.46;100.00;160953.25;5050680;28;20091;-59
2023/12/04 09:49:22;;;;;;;9.50;8.15;;;;;;;1.46;100.00;160953.25;5048153;28;20077;-58
2023/12/04 09:51:48;;;;;;;9.02;7.40;;;;;;;1.43;100.00;160946.56;5051584;28;20051;-58
2023/12/04 09:54:17;;;;;;;10.98;8.93;;;;;;;1.43;100.00;160945.25;5050271;28;20476;-58
2023/12/04 09:56:43;;;;;;;12.52;9.98;;;;;;;1.39;100.00;160934.50;5051814;28;20419;-58
2023/12/04 09:59:12;;;;;;;8.32;7.57;;;;;;;1.50;100.00;160964.03;5050129;28;20424;-57
2023/12/04 10:01:38;;;;;;;9.10;8.20;;;;;;;1.56;100.00;160980.13;5051784;28;20029;-58
2023/12/04 10:04:07;;;;;;;10.75;8.60;;;;;;;1.53;100.00;160972.03;5050537;28;20103;-58
2023/12/04 10:06:33;;;;;;;8.32;7.53;;;;;;;1.53;100.00;160972.03;5050540;28;20025;-58
2023/12/04 10:08:59;;;;;;;12.60;11.40;;;;;;;1.52;100.00;160969.41;5051736;28;20472;-58
2023/12/04 10:11:26;;;;;;;7.47;6.82;;;;;;;1.54;100.00;160974.75;5050036;28;20044;-58
2023/12/04 10:13:52;;;;;;;10.05;8.90;;;;;;;1.61;100.00;160992.19;5050591;28;20056;-58
2023/12/04 10:16:34;;;;;;;8.90;7.53;;;;;;;1.60;100.00;160988.19;5050051;28;20178;-58
2023/12/04 10:19:20;;;;;;;13.57;8.07;;;;;;;1.65;100.00;161001.59;5051629;28;20028;-58
2023/12/04 10:21:47;;;;;;;8.38;7.57;;;;;;;1.67;100.00;161006.97;5030016;28;20060;-58
2023/12/04 10:24:26;;;;;;;7.30;6.63;;;;;;;1.81;100.00;161044.53;5031491;28;20030;-57
2023/12/04 10:26:52;;;;;;;;;;;;;;;1.79;100.00;161039.16;5052136;28;20039;-58
2023/12/04 10:29:17;;;;;;;11.52;7.93;;;;;;;1.85;100.00;161053.94;5049319;28;19921;-58
2023/12/04 10:31:43;;;;;;;8.85;7.43;;;;;;;1.89;100.00;161066.00;5051346;28;20100;-58
2023/12/04 10:34:11;;;;;;;13.93;7.50;;;;;;;1.93;100.00;161074.03;5050118;28;20025;-58
2023/12/04 10:36:39;;;;;;;9.23;8.13;;;;;;;1.89;100.00;161066.00;5050926;28;20040;-58
2023/12/04 10:39:04;;;;;;;8.77;7.68;;;;;;;1.87;100.00;161060.63;5049725;28;20595;-58
2023/12/04 10:41:31;;;;;;;10.30;8.40;;;;;;;1.94;100.00;161078.03;5051354;28;20108;-57
2023/12/04 10:43:57;;;;;;;11.77;7.55;;;;;;;1.88;100.00;161063.31;5050653;28;20102;-58
2023/12/04 10:46:27;;;;;;;11.25;8.43;;;;;;;1.93;100.00;161074.03;5049446;28;20086;-58
2023/12/04 10:48:52;;;;;;;7.78;6.40;;;;;;;2.00;100.00;161092.81;5050923;28;20032;-58
2023/12/04 10:51:19;;;;;;;9.60;7.88;;;;;;;1.97;100.00;161084.81;5048906;28;20044;-58
2023/12/04 10:53:44;;;;;;;9.68;8.13;;;;;;;2.06;100.00;161110.28;5051023;28;20017;-57
2023/12/04 10:56:32;;;;;;;8.55;7.75;;;;;;;2.18;100.00;161139.78;5049439;28;20408;-58
2023/12/04 10:59:01;;;;;;;7.13;6.45;;;;;;;2.24;100.00;161155.88;5050593;28;20035;-58
2023/12/04 11:01:27;;;;;;;8.75;7.10;;;;;;;2.25;100.00;161157.25;5049231;28;20412;-58
2023/12/04 11:03:56;;;;;;;8.30;7.50;;;;;;;2.19;100.00;161143.84;5050964;28;20032;-58